Time;durP1;ratioP1;P1;durP2;ratioP2;P2;SDS_P1;SDS_P2;PMS_P1;PMS_P2;Temp;Humidity;BMP_temperature;BMP_pressure;BME280_temperature;BME280_humidity;BME280_pressure;Samples;Min_cycle;Max_cycle;Signal;HPM_P1;HPM_P2
2023/10/31 00:01:25;;;;;;;2.53;1.60;;;;;;;9.55;100.00;99561.00;5020539;28;20078;-89
2023/10/31 00:03:51;;;;;;;4.70;2.45;;;;;;;9.58;100.00;99558.28;5037615;28;20095;-89
2023/10/31 00:06:16;;;;;;;3.90;2.45;;;;;;;9.60;100.00;99573.78;5014557;28;20113;-88
2023/10/31 00:08:41;;;;;;;4.20;2.60;;;;;;;9.62;100.00;99579.75;5040687;28;20057;-86
2023/10/31 00:11:07;;;;;;;4.97;3.20;;;;;;;9.65;100.00;99590.84;5033139;28;20025;-90
2023/10/31 00:13:32;;;;;;;6.07;3.80;;;;;;;9.67;100.00;99589.03;5064234;28;20076;-87
2023/10/31 00:15:57;;;;;;;5.63;3.85;;;;;;;9.68;100.00;99595.91;5049695;28;20040;-86
2023/10/31 00:18:23;;;;;;;7.03;4.47;;;;;;;9.70;100.00;99590.69;5037927;28;20134;-86
2023/10/31 00:20:48;;;;;;;7.00;4.88;;;;;;;9.71;100.00;99587.19;5024133;28;20017;-86
2023/10/31 00:23:14;;;;;;;7.75;4.78;;;;;;;9.73;100.00;99582.75;5037766;28;20021;-86
2023/10/31 00:25:40;;;;;;;7.15;5.00;;;;;;;9.74;100.00;99592.22;5033998;28;20180;-88
2023/10/31 00:28:06;;;;;;;9.43;5.72;;;;;;;9.75;100.00;99599.09;5033186;28;20057;-86
2023/10/31 00:30:32;;;;;;;7.65;5.43;;;;;;;9.76;100.00;99598.19;5031415;28;20021;-85
2023/10/31 00:32:57;;;;;;;7.70;5.72;;;;;;;9.79;100.00;99600.66;5040830;28;20029;-87
2023/10/31 00:35:23;;;;;;;7.35;5.70;;;;;;;9.81;100.00;99609.25;5031024;28;20029;-88
2023/10/31 00:37:48;;;;;;;9.05;5.85;;;;;;;9.81;100.00;99604.03;5032038;28;20030;-88
2023/10/31 00:40:13;;;;;;;7.68;5.40;;;;;;;9.81;100.00;99614.44;5031099;28;20582;-89
2023/10/31 00:42:41;;;;;;;7.78;5.50;;;;;;;9.82;100.00;99613.53;5045384;28;20023;-89
2023/10/31 00:45:07;;;;;;;7.07;5.43;;;;;;;9.81;100.00;99617.03;5015478;28;20109;-88
2023/10/31 00:47:32;;;;;;;8.15;5.60;;;;;;;9.79;100.00;99608.44;5042113;28;20079;-90
2023/10/31 00:49:58;;;;;;;7.57;5.13;;;;;;;9.82;100.00;99612.69;5034741;28;20029;-89
2023/10/31 00:52:23;;;;;;;6.63;4.97;;;;;;;9.81;100.00;99613.59;5032863;28;20104;-88
2023/10/31 00:54:48;;;;;;;6.75;4.85;;;;;;;9.81;100.00;99616.19;5042175;28;20032;-88
2023/10/31 00:57:14;;;;;;;6.85;4.63;;;;;;;9.79;100.00;99629.22;5038310;28;20056;-89
2023/10/31 00:59:39;;;;;;;6.57;4.47;;;;;;;9.79;100.00;99624.03;5031525;28;20362;-88
2023/10/31 01:02:05;;;;;;;5.25;3.70;;;;;;;9.77;100.00;99625.84;5020625;28;20025;-88
2023/10/31 01:04:31;;;;;;;6.80;3.83;;;;;;;9.78;100.00;99632.75;5036380;28;20033;-88
2023/10/31 01:06:56;;;;;;;6.20;3.20;;;;;;;9.77;100.00;99630.22;5030366;28;20600;-88
2023/10/31 01:09:21;;;;;;;5.18;3.20;;;;;;;9.76;100.00;99642.34;5027567;28;20194;-88
2023/10/31 01:11:47;;;;;;;4.53;2.78;;;;;;;9.75;100.00;99640.66;5029539;28;20041;-89
2023/10/31 01:14:12;;;;;;;4.53;2.35;;;;;;;9.74;100.00;99638.97;5028862;28;20030;-88
2023/10/31 01:16:39;;;;;;;5.18;2.50;;;;;;;9.74;100.00;99646.75;5032272;28;20594;-89
2023/10/31 01:19:05;;;;;;;5.00;2.38;;;;;;;9.74;100.00;99646.75;5032706;28;20040;-88
2023/10/31 01:21:30;;;;;;;4.40;2.20;;;;;;;9.75;100.00;99655.41;5029523;28;20025;-88
2023/10/31 01:23:55;;;;;;;3.33;2.03;;;;;;;9.74;100.00;99657.16;5029629;28;20033;-88
2023/10/31 01:26:20;;;;;;;4.03;2.10;;;;;;;9.73;100.00;99655.47;5027507;28;20037;-89
2023/10/31 01:28:46;;;;;;;4.53;2.30;;;;;;;9.71;100.00;99652.09;5031913;28;20526;-89
2023/10/31 01:31:11;;;;;;;3.85;2.28;;;;;;;9.70;100.00;99661.63;5032955;28;20048;-88
2023/10/31 01:33:40;;;;;;;3.97;2.28;;;;;;;9.70;100.00;99664.22;5028825;28;20036;-88
2023/10/31 01:36:05;;;;;;;5.20;2.60;;;;;;;9.68;100.00;99665.22;5031314;28;20083;-88
2023/10/31 01:38:31;;;;;;;7.85;2.72;;;;;;;9.68;100.00;99657.41;5028438;28;20025;-88
2023/10/31 01:40:56;;;;;;;5.25;2.92;;;;;;;9.67;100.00;99659.16;5027846;28;20484;-89
2023/10/31 01:43:32;;;;;;;6.90;3.42;;;;;;;9.68;100.00;99665.22;5037506;28;20044;-89
2023/10/31 01:45:58;;;;;;;6.80;3.63;;;;;;;9.67;100.00;99668.72;5016562;28;20100;-88
2023/10/31 01:48:25;;;;;;;8.30;4.30;;;;;;;9.66;100.00;99670.44;5029628;28;20033;-90
2023/10/31 01:50:51;;;;;;;8.68;4.60;;;;;;;9.65;100.00;99662.72;5050123;28;20441;-89
2023/10/31 01:53:17;;;;;;;8.77;5.18;;;;;;;9.63;100.00;99659.34;5014207;28;20420;-89
2023/10/31 01:55:44;;;;;;;10.15;6.32;;;;;;;9.63;100.00;99661.94;5031369;28;20029;-89
2023/10/31 01:58:10;;;;;;;10.85;6.25;;;;;;;9.60;100.00;99669.84;5050660;28;20029;-88
2023/10/31 02:00:39;;;;;;;12.93;7.47;;;;;;;9.61;100.00;99661.16;5031346;28;20057;-89
2023/10/31 02:03:05;;;;;;;11.05;6.82;;;;;;;9.58;100.00;99667.34;5030586;28;20037;-88
2023/10/31 02:05:32;;;;;;;12.82;7.80;;;;;;;9.60;100.00;99675.91;5031308;28;20539;-90
2023/10/31 02:07:57;;;;;;;13.02;8.32;;;;;;;9.59;100.00;99668.16;5031539;28;20028;-88
2023/10/31 02:10:22;;;;;;;14.48;8.57;;;;;;;9.59;100.00;99668.16;5031394;28;20030;-89
2023/10/31 02:12:48;;;;;;;14.95;8.93;;;;;;;9.59;100.00;99665.56;5049556;28;20056;-88
2023/10/31 02:15:13;;;;;;;14.75;9.57;;;;;;;9.58;100.00;99664.72;5054254;28;20019;-88
2023/10/31 02:17:38;;;;;;;14.30;9.55;;;;;;;9.60;100.00;99664.66;5058988;28;20087;-88
2023/10/31 02:20:04;;;;;;;16.05;9.75;;;;;;;9.60;100.00;99659.47;5044232;28;20026;-88
2023/10/31 02:22:30;;;;;;;16.30;10.05;;;;;;;9.61;100.00;99655.97;5046078;28;20086;-88
2023/10/31 02:24:56;;;;;;;17.50;10.15;;;;;;;9.62;100.00;99660.25;5025485;28;20439;-89
2023/10/31 02:27:21;;;;;;;17.27;10.55;;;;;;;9.62;100.00;99660.25;5017055;28;20112;-88
2023/10/31 02:29:46;;;;;;;18.17;10.93;;;;;;;9.64;100.00;99661.03;5054532;28;20095;-87
2023/10/31 02:32:12;;;;;;;18.58;11.30;;;;;;;9.65;100.00;99663.56;5046259;28;20025;-89
2023/10/31 02:34:37;;;;;;;20.10;12.05;;;;;;;9.65;100.00;99662.72;5029894;28;20048;-88
2023/10/31 02:37:02;;;;;;;18.52;11.43;;;;;;;9.64;100.00;99664.50;5034381;28;20032;-89
2023/10/31 02:39:30;;;;;;;22.75;12.02;;;;;;;9.65;100.00;99658.38;5040465;28;20083;-88
2023/10/31 02:41:56;;;;;;;21.88;12.25;;;;;;;9.67;100.00;99668.72;5034294;28;20104;-89
2023/10/31 02:44:21;;;;;;;21.75;12.07;;;;;;;9.67;100.00;99666.13;5034347;28;20075;-89
2023/10/31 02:46:46;;;;;;;23.45;13.20;;;;;;;9.66;100.00;99673.03;5036180;28;20053;-89
2023/10/31 02:49:11;;;;;;;22.60;12.93;;;;;;;9.67;100.00;99681.69;5033231;28;20036;-88
2023/10/31 02:51:37;;;;;;;26.42;13.27;;;;;;;9.67;100.00;99681.69;5032459;28;20025;-88
2023/10/31 02:54:02;;;;;;;22.20;13.40;;;;;;;9.68;100.00;99678.19;5054289;28;20104;-89
2023/10/31 02:56:28;;;;;;;24.17;13.90;;;;;;;9.70;100.00;99689.38;5042302;28;20037;-87
2023/10/31 02:58:54;;;;;;;22.08;13.52;;;;;;;9.70;100.00;99691.97;5039796;28;20021;-88
2023/10/31 03:01:20;;;;;;;22.90;14.18;;;;;;;9.72;100.00;99687.56;5037890;28;20028;-89
2023/10/31 03:03:46;;;;;;;26.17;14.90;;;;;;;9.71;100.00;99691.88;5054177;28;20078;-88
2023/10/31 03:06:11;;;;;;;24.83;14.20;;;;;;;9.72;100.00;99690.97;5050985;28;20107;-88
2023/10/31 03:08:36;;;;;;;25.38;14.35;;;;;;;9.74;100.00;99693.50;5036577;28;20028;-89
2023/10/31 03:11:02;;;;;;;25.70;15.20;;;;;;;9.74;100.00;99696.09;5033857;28;20065;-89
2023/10/31 03:13:27;;;;;;;25.90;15.23;;;;;;;9.75;100.00;99695.19;5036116;28;20034;-88
2023/10/31 03:15:52;;;;;;;25.90;15.23;;;;;;;9.75;100.00;99700.38;5043644;28;20037;-89
2023/10/31 03:18:18;;;;;;;26.02;15.60;;;;;;;9.77;100.00;99708.97;5035843;28;20547;-89
2023/10/31 03:20:46;;;;;;;24.92;14.68;;;;;;;9.78;100.00;99710.66;5035709;28;20025;-88
2023/10/31 03:23:11;;;;;;;23.48;14.15;;;;;;;9.77;100.00;99716.75;5035888;28;20052;-88
2023/10/31 03:25:36;;;;;;;24.40;13.90;;;;;;;9.78;100.00;99721.06;5051152;28;20141;-88
2023/10/31 03:28:02;;;;;;;26.55;14.88;;;;;;;9.78;100.00;99726.25;5014951;28;20028;-88
2023/10/31 03:30:27;;;;;;;23.02;13.90;;;;;;;9.79;100.00;99722.75;5035498;28;20100;-88
2023/10/31 03:32:53;;;;;;;25.48;14.98;;;;;;;9.79;100.00;99716.72;5044584;28;20044;-88
2023/10/31 03:35:18;;;;;;;26.40;14.10;;;;;;;9.76;100.00;99724.63;5033411;28;20033;-88
2023/10/31 03:37:44;;;;;;;23.23;14.52;;;;;;;9.76;100.00;99730.66;5032297;28;20037;-89
2023/10/31 03:40:09;;;;;;;25.40;14.60;;;;;;;9.76;100.00;99727.22;5045882;28;20053;-88
2023/10/31 03:42:34;;;;;;;26.83;16.27;;;;;;;9.75;100.00;99736.75;5044410;28;20021;-87
2023/10/31 03:45:00;;;;;;;27.10;15.88;;;;;;;9.75;100.00;99730.72;5033936;28;20087;-88
2023/10/31 03:47:25;;;;;;;26.30;15.30;;;;;;;9.75;100.00;99735.91;5021657;28;20742;-88
2023/10/31 03:49:50;;;;;;;25.42;15.52;;;;;;;9.74;100.00;99735.06;5041575;28;20070;-87
2023/10/31 03:52:16;;;;;;;24.65;15.02;;;;;;;9.76;100.00;99745.41;5030684;28;20056;-88
2023/10/31 03:54:41;;;;;;;24.45;14.73;;;;;;;9.77;100.00;99744.50;5032922;28;20068;-89
2023/10/31 03:57:06;;;;;;;24.08;15.05;;;;;;;9.75;100.00;99747.13;5032383;28;20049;-90
2023/10/31 03:59:32;;;;;;;32.78;15.85;;;;;;;9.75;100.00;99754.09;5031406;28;20033;-88
2023/10/31 04:01:57;;;;;;;26.08;16.02;;;;;;;9.74;100.00;99749.81;5013724;28;20033;-88
2023/10/31 04:04:22;;;;;;;25.02;16.27;;;;;;;9.74;100.00;99758.44;5018923;28;20029;-88
2023/10/31 04:06:47;;;;;;;27.95;16.60;;;;;;;9.75;100.00;99761.91;5031425;28;20623;-89
2023/10/31 04:09:13;;;;;;;27.45;17.00;;;;;;;9.74;100.00;99766.22;5030839;28;20166;-88
2023/10/31 04:11:39;;;;;;;28.83;16.77;;;;;;;9.75;100.00;99767.91;5032982;28;20048;-88
2023/10/31 04:14:05;;;;;;;30.17;16.95;;;;;;;9.76;100.00;99768.78;5019073;28;20028;-88
2023/10/31 04:16:31;;;;;;;28.38;17.20;;;;;;;9.77;100.00;99771.31;5015592;28;20025;-87
2023/10/31 04:18:56;;;;;;;27.25;17.02;;;;;;;9.78;100.00;99777.38;5029795;28;20032;-88
2023/10/31 04:21:21;;;;;;;29.73;17.33;;;;;;;9.79;100.00;99776.47;5030217;28;20037;-88
2023/10/31 04:23:47;;;;;;;27.60;16.67;;;;;;;9.79;100.00;99774.69;5032237;28;20471;-88
2023/10/31 04:26:12;;;;;;;28.55;17.27;;;;;;;9.80;100.00;99781.59;5032420;28;20037;-89
2023/10/31 04:28:37;;;;;;;27.00;16.75;;;;;;;9.82;100.00;99784.97;5030303;28;20522;-87
2023/10/31 04:31:04;;;;;;;28.05;17.08;;;;;;;9.82;100.00;99789.34;5030020;28;20029;-89
2023/10/31 04:33:30;;;;;;;28.98;18.23;;;;;;;9.82;100.00;99789.34;5030024;28;20480;-87
2023/10/31 04:35:55;;;;;;;27.92;17.52;;;;;;;9.82;100.00;99790.16;5033714;28;20021;-87
2023/10/31 04:38:21;;;;;;;27.67;17.35;;;;;;;9.82;100.00;99795.34;5030038;28;20045;-87
2023/10/31 04:40:46;;;;;;;27.80;17.77;;;;;;;9.80;100.00;99791.97;5040745;28;20061;-87
2023/10/31 04:43:12;;;;;;;30.58;17.73;;;;;;;9.81;100.00;99793.66;5055859;28;20025;-86
2023/10/31 04:45:37;;;;;;;28.45;17.48;;;;;;;9.82;100.00;99800.56;5050587;28;20037;-87
2023/10/31 04:48:02;;;;;;;29.33;16.98;;;;;;;9.82;100.00;99810.94;5033537;28;20377;-87
2023/10/31 04:50:28;;;;;;;28.85;17.30;;;;;;;9.83;100.00;99801.38;5044471;28;20529;-87
2023/10/31 04:52:53;;;;;;;28.27;17.13;;;;;;;9.84;100.00;99816.06;5048844;28;20029;-88
2023/10/31 04:55:18;;;;;;;30.27;17.77;;;;;;;9.83;100.00;99816.97;5038813;28;20549;-87
2023/10/31 04:57:43;;;;;;;30.45;17.20;;;;;;;9.80;100.00;99824.91;5017866;28;20029;-87
2023/10/31 05:00:10;;;;;;;27.42;17.25;;;;;;;9.79;100.00;99820.63;5032118;28;20021;-88
2023/10/31 05:02:35;;;;;;;28.08;17.25;;;;;;;9.78;100.00;99829.31;5012911;28;20460;-88
2023/10/31 05:05:00;;;;;;;27.80;15.90;;;;;;;9.77;100.00;99831.03;5028978;28;20052;-88
2023/10/31 05:07:26;;;;;;;27.88;16.00;;;;;;;9.79;100.00;99826.66;5034704;28;20029;-87
2023/10/31 05:09:51;;;;;;;24.73;15.57;;;;;;;9.77;100.00;99831.03;5011385;28;20030;-87
2023/10/31 05:12:16;;;;;;;24.17;14.88;;;;;;;9.78;100.00;99837.09;5044023;28;20090;-88
2023/10/31 05:14:42;;;;;;;27.92;15.57;;;;;;;9.75;100.00;99830.25;5033492;28;20041;-87
2023/10/31 05:17:07;;;;;;;23.17;14.70;;;;;;;9.75;100.00;99830.25;5028843;28;20025;-88
2023/10/31 05:19:32;;;;;;;26.85;14.48;;;;;;;9.73;100.00;99821.72;5029574;28;20037;-87
2023/10/31 05:21:57;;;;;;;23.13;13.45;;;;;;;9.72;100.00;99830.41;5038170;28;20061;-87
2023/10/31 05:24:23;;;;;;;23.48;13.77;;;;;;;9.72;100.00;99833.00;5029799;28;20037;-88
2023/10/31 05:26:48;;;;;;;24.60;13.77;;;;;;;9.70;100.00;99832.22;5030860;28;20037;-87
2023/10/31 05:29:13;;;;;;;20.20;12.88;;;;;;;9.68;100.00;99834.84;5028509;28;20026;-88
2023/10/31 05:31:39;;;;;;;20.45;12.50;;;;;;;9.69;100.00;99830.50;5030826;28;20112;-87
2023/10/31 05:34:04;;;;;;;20.02;12.05;;;;;;;9.67;100.00;99833.16;5029328;28;21466;-89
2023/10/31 05:36:30;;;;;;;18.42;11.45;;;;;;;9.67;100.00;99837.50;5034221;28;20106;-87
2023/10/31 05:38:55;;;;;;;20.33;11.85;;;;;;;9.65;100.00;99839.31;5029585;28;20022;-87
2023/10/31 05:41:20;;;;;;;18.02;11.63;;;;;;;9.64;100.00;99840.22;5031407;28;20061;-87
2023/10/31 05:43:46;;;;;;;19.10;11.13;;;;;;;9.63;100.00;99847.19;5030542;28;20108;-88
2023/10/31 05:46:13;;;;;;;16.20;10.68;;;;;;;9.63;100.00;99852.38;5030223;28;20464;-88
2023/10/31 05:48:49;;;;;;;16.02;10.82;;;;;;;9.64;100.00;99855.81;5015843;28;20029;-87
2023/10/31 05:51:18;;;;;;;16.95;10.80;;;;;;;9.63;100.00;99867.97;5034580;28;20091;-88
2023/10/31 05:53:48;;;;;;;14.90;10.23;;;;;;;9.64;100.00;99863.59;5017394;28;20098;-88
2023/10/31 05:56:16;;;;;;;21.08;11.80;;;;;;;9.64;100.00;99872.25;5040532;28;20025;-87
2023/10/31 05:58:42;;;;;;;17.10;11.00;;;;;;;9.63;100.00;99878.34;5034982;28;20047;-87
2023/10/31 06:01:08;;;;;;;18.70;11.73;;;;;;;9.61;100.00;99884.47;5015892;28;20025;-87
2023/10/31 06:03:33;;;;;;;18.77;11.93;;;;;;;9.63;100.00;99882.66;5033603;28;20435;-88
2023/10/31 06:05:59;;;;;;;17.10;11.00;;;;;;;9.61;100.00;99889.66;5018420;28;20036;-87
2023/10/31 06:08:27;;;;;;;17.08;11.30;;;;;;;9.61;100.00;99890.53;5046394;28;20579;-88
2023/10/31 06:10:52;;;;;;;19.40;11.38;;;;;;;9.62;100.00;99897.44;5034141;28;20033;-87
2023/10/31 06:13:18;;;;;;;19.55;11.32;;;;;;;9.62;100.00;99901.75;5034661;28;20420;-88
2023/10/31 06:15:44;;;;;;;17.10;11.95;;;;;;;9.61;100.00;99907.84;5034369;28;20036;-87
2023/10/31 06:18:09;;;;;;;17.80;11.80;;;;;;;9.61;100.00;99915.63;5014589;28;20039;-88
2023/10/31 06:20:40;;;;;;;16.88;11.70;;;;;;;9.61;100.00;99920.84;5034599;28;20033;-87
2023/10/31 06:23:06;;;;;;;15.73;11.05;;;;;;;9.61;100.00;99918.22;5034918;28;20090;-88
2023/10/31 06:25:31;;;;;;;16.30;11.75;;;;;;;9.62;100.00;99922.53;5017657;28;20033;-87
2023/10/31 06:27:57;;;;;;;19.95;11.80;;;;;;;9.62;100.00;99919.94;5044962;28;20021;-88
2023/10/31 06:30:24;;;;;;;16.63;11.75;;;;;;;9.60;100.00;99922.59;5052583;28;20545;-87
2023/10/31 06:32:49;;;;;;;18.13;12.00;;;;;;;9.61;100.00;99934.69;5034028;28;20017;-88
2023/10/31 06:35:15;;;;;;;18.23;11.95;;;;;;;9.60;100.00;99926.94;5033408;28;20028;-87
2023/10/31 06:37:40;;;;;;;17.50;11.70;;;;;;;9.60;100.00;99929.53;5031971;28;20096;-87
2023/10/31 06:40:06;;;;;;;15.48;11.45;;;;;;;9.60;100.00;99934.72;5035514;28;20042;-87
2023/10/31 06:42:31;;;;;;;15.13;11.02;;;;;;;9.60;100.00;99939.91;5036048;28;20025;-87
2023/10/31 06:44:57;;;;;;;18.77;10.93;;;;;;;9.60;100.00;99939.91;5034470;28;20025;-88
2023/10/31 06:47:22;;;;;;;16.33;10.45;;;;;;;9.61;100.00;99941.59;5034314;28;20029;-87
2023/10/31 06:49:47;;;;;;;16.05;9.80;;;;;;;9.61;100.00;99945.06;5033869;28;20024;-88
2023/10/31 06:52:12;;;;;;;14.15;10.20;;;;;;;9.60;100.00;99940.78;5040175;28;20376;-87
2023/10/31 06:54:38;;;;;;;15.38;10.15;;;;;;;9.60;100.00;99945.09;5044768;28;20017;-87
2023/10/31 06:57:04;;;;;;;16.77;9.93;;;;;;;9.58;100.00;99947.78;5033660;28;20473;-87
2023/10/31 06:59:29;;;;;;;13.30;9.70;;;;;;;9.60;100.00;99947.69;5034023;28;20034;-88
2023/10/31 07:01:54;;;;;;;16.70;10.68;;;;;;;9.60;100.00;99955.50;5030882;28;20100;-88
2023/10/31 07:04:20;;;;;;;14.55;10.38;;;;;;;9.59;100.00;99951.19;5052064;28;20028;-87
2023/10/31 07:06:45;;;;;;;16.83;11.48;;;;;;;9.61;100.00;99962.38;5017362;28;20037;-87
2023/10/31 07:09:10;;;;;;;17.27;11.10;;;;;;;9.60;100.00;99968.47;5033885;28;20022;-87
2023/10/31 07:11:35;;;;;;;14.57;11.07;;;;;;;9.59;100.00;99967.63;5032937;28;20025;-88
2023/10/31 07:14:04;;;;;;;16.67;11.45;;;;;;;9.60;100.00;99973.66;5033594;28;20041;-87
2023/10/31 07:16:32;;;;;;;15.07;11.25;;;;;;;9.61;100.00;99972.78;5033515;28;20083;-88
2023/10/31 07:18:57;;;;;;;19.15;11.50;;;;;;;9.59;100.00;99964.19;5032332;28;20071;-87
2023/10/31 07:21:22;;;;;;;17.35;12.32;;;;;;;9.59;100.00;99965.03;5034588;28;20060;-87
2023/10/31 07:23:48;;;;;;;17.35;12.00;;;;;;;9.60;100.00;99968.47;5015598;28;20029;-87
2023/10/31 07:26:13;;;;;;;19.65;12.90;;;;;;;9.61;100.00;99957.19;5033442;28;20032;-87
2023/10/31 07:28:38;;;;;;;17.77;13.00;;;;;;;9.59;100.00;99959.00;5032453;28;20028;-88
2023/10/31 07:31:04;;;;;;;17.65;12.80;;;;;;;9.60;100.00;99953.75;5032921;28;20025;-87
2023/10/31 07:33:30;;;;;;;17.77;12.40;;;;;;;9.62;100.00;99964.06;5033482;28;20032;-87
2023/10/31 07:35:55;;;;;;;16.77;11.73;;;;;;;9.63;100.00;99965.78;5035186;28;20032;-88
2023/10/31 07:38:20;;;;;;;16.60;12.05;;;;;;;9.63;100.00;99960.59;5033129;28;20025;-88
2023/10/31 07:40:45;;;;;;;16.13;11.63;;;;;;;9.62;100.00;99959.75;5031164;28;20041;-87
2023/10/31 07:43:11;;;;;;;17.30;11.65;;;;;;;9.63;100.00;99965.78;5040799;28;20427;-88
2023/10/31 07:45:36;;;;;;;15.95;11.45;;;;;;;9.62;100.00;99970.13;5033181;28;20032;-87
2023/10/31 07:48:01;;;;;;;16.88;11.50;;;;;;;9.63;100.00;99973.56;5032879;28;20026;-87
2023/10/31 07:50:27;;;;;;;17.95;11.45;;;;;;;9.63;100.00;99976.16;5034491;28;20029;-87
2023/10/31 07:52:53;;;;;;;16.73;10.75;;;;;;;9.63;100.00;99981.34;5032026;28;20104;-87
2023/10/31 07:55:18;;;;;;;14.00;10.68;;;;;;;9.62;100.00;99982.25;5032950;28;20025;-87
2023/10/31 07:57:43;;;;;;;14.38;10.10;;;;;;;9.60;100.00;99981.47;5030682;28;20056;-88
2023/10/31 08:00:11;;;;;;;12.63;9.82;;;;;;;9.57;100.00;99983.25;5030560;28;20021;-87
2023/10/31 08:02:36;;;;;;;13.52;9.80;;;;;;;9.56;100.00;99981.56;5029590;28;20029;-87
2023/10/31 08:05:01;;;;;;;13.43;9.50;;;;;;;9.56;100.00;99980.72;5031468;28;20032;-87
2023/10/31 08:07:29;;;;;;;12.35;9.40;;;;;;;9.56;100.00;99989.34;5013419;28;20033;-87
2023/10/31 08:09:55;;;;;;;15.55;9.70;;;;;;;9.56;100.00;99997.16;5015403;28;20044;-87
2023/10/31 08:12:21;;;;;;;14.98;9.52;;;;;;;9.59;100.00;99983.22;5029172;28;20697;-87
2023/10/31 08:14:46;;;;;;;11.93;8.02;;;;;;;9.65;100.00;99989.94;5026377;28;20025;-88
2023/10/31 08:17:11;;;;;;;11.02;8.73;;;;;;;9.68;100.00;99993.28;5027762;28;20057;-88
2023/10/31 08:19:37;;;;;;;12.20;8.30;;;;;;;9.73;100.00;99998.31;5029811;28;20036;-87
2023/10/31 08:22:02;;;;;;;13.88;8.73;;;;;;;9.78;100.00;100004.19;5027726;28;20112;-88
2023/10/31 08:24:27;;;;;;;13.25;8.95;;;;;;;9.81;100.00;100000.66;5028428;28;20736;-88
2023/10/31 08:26:53;;;;;;;13.40;9.77;;;;;;;9.85;100.00;100008.25;5031486;28;20379;-87
2023/10/31 08:29:18;;;;;;;17.77;9.05;;;;;;;9.88;100.00;100004.69;5033702;28;20175;-87
2023/10/31 08:31:43;;;;;;;12.90;9.15;;;;;;;9.92;100.00;100008.03;5029623;28;20032;-87
2023/10/31 08:34:10;;;;;;;13.98;9.48;;;;;;;9.94;100.00;100011.41;5030243;28;20029;-88
2023/10/31 08:36:35;;;;;;;17.42;10.80;;;;;;;9.98;100.00;100013.00;5030384;28;20033;-88
2023/10/31 08:39:00;;;;;;;15.20;10.45;;;;;;;10.04;100.00;100012.78;5030806;28;20060;-88
2023/10/31 08:41:26;;;;;;;15.25;10.65;;;;;;;10.06;100.00;100018.78;5031874;28;20033;-87
2023/10/31 08:43:51;;;;;;;15.68;11.55;;;;;;;10.10;100.00;100022.94;5029255;28;20025;-88
2023/10/31 08:46:17;;;;;;;16.38;11.50;;;;;;;10.14;100.00;100024.53;5030086;28;20087;-87
2023/10/31 08:48:43;;;;;;;18.05;11.55;;;;;;;10.17;100.00;100021.81;5034035;28;20025;-87
2023/10/31 08:51:08;;;;;;;17.65;12.32;;;;;;;10.18;100.00;100026.13;5028711;28;20029;-87
2023/10/31 08:53:34;;;;;;;19.90;13.07;;;;;;;10.22;100.00;100032.03;5029649;28;20021;-87
2023/10/31 08:55:59;;;;;;;16.80;12.23;;;;;;;10.26;100.00;100035.34;5031751;28;20052;-87
2023/10/31 08:58:24;;;;;;;17.08;12.45;;;;;;;10.27;100.00;100039.66;5027660;28;20032;-88
2023/10/31 09:00:49;;;;;;;18.27;12.88;;;;;;;10.26;100.00;100045.75;5031656;28;20095;-86
2023/10/31 09:03:15;;;;;;;22.25;12.68;;;;;;;10.23;100.00;100048.50;5035156;28;20037;-87
2023/10/31 09:05:40;;;;;;;17.98;13.15;;;;;;;10.19;100.00;100047.75;5030801;28;20144;-88
2023/10/31 09:08:05;;;;;;;21.58;13.63;;;;;;;10.22;100.00;100052.00;5042215;28;20026;-87
2023/10/31 09:10:32;;;;;;;18.00;12.20;;;;;;;10.21;100.00;100066.72;5031654;28;20026;-87
2023/10/31 09:12:57;;;;;;;20.55;12.95;;;;;;;10.21;100.00;100063.31;5027152;28;20113;-87
2023/10/31 09:15:23;;;;;;;21.85;12.98;;;;;;;10.21;100.00;100065.91;5025111;28;20116;-88
2023/10/31 09:17:48;;;;;;;20.13;12.35;;;;;;;10.18;100.00;100067.72;5026802;28;20029;-88
2023/10/31 09:20:13;;;;;;;20.50;12.73;;;;;;;10.18;100.00;100070.31;5025296;28;20496;-88
2023/10/31 09:22:39;;;;;;;18.67;12.30;;;;;;;10.18;100.00;100078.09;5027892;28;20033;-88
2023/10/31 09:25:04;;;;;;;20.55;12.10;;;;;;;10.24;100.00;100082.22;5030948;28;20034;-87
2023/10/31 09:27:30;;;;;;;18.85;12.02;;;;;;;10.27;100.00;100082.13;5035859;28;20399;-88
2023/10/31 09:29:55;;;;;;;20.90;11.95;;;;;;;10.33;100.00;100091.44;5029494;28;20437;-86
2023/10/31 09:32:20;;;;;;;21.40;12.93;;;;;;;10.37;100.00;100095.63;5031570;28;20090;-87
2023/10/31 09:34:46;;;;;;;18.98;12.98;;;;;;;10.41;100.00;100099.84;5035973;28;20035;-87
2023/10/31 09:37:11;;;;;;;24.67;12.80;;;;;;;10.44;100.00;100102.31;5033840;28;20037;-88
2023/10/31 09:39:36;;;;;;;19.50;11.98;;;;;;;10.44;100.00;100098.88;5034162;28;20041;-86
2023/10/31 09:42:02;;;;;;;18.05;10.98;;;;;;;10.45;100.00;100106.59;5034539;28;20519;-87
2023/10/31 09:44:27;;;;;;;18.02;11.05;;;;;;;10.52;100.00;100103.78;5032646;28;20044;-87
2023/10/31 09:46:53;;;;;;;17.83;10.98;;;;;;;10.59;100.00;100110.47;5031302;28;20892;-88
2023/10/31 09:49:18;;;;;;;18.05;11.15;;;;;;;10.64;100.00;100111.13;5016261;28;20113;-87
2023/10/31 09:51:46;;;;;;;16.27;10.52;;;;;;;10.68;100.00;100119.66;5035595;28;20026;-88
2023/10/31 09:54:15;;;;;;;16.65;9.65;;;;;;;10.68;100.00;100111.84;5037519;28;20104;-87
2023/10/31 09:56:41;;;;;;;15.88;10.25;;;;;;;10.67;100.00;100118.81;5018146;28;20105;-87
2023/10/31 09:59:07;;;;;;;18.05;10.18;;;;;;;10.66;100.00;100130.13;5033291;28;20575;-87
2023/10/31 10:01:32;;;;;;;18.83;10.30;;;;;;;10.66;100.00;100130.13;5032336;28;20116;-88
2023/10/31 10:03:59;;;;;;;17.73;10.48;;;;;;;10.71;100.00;100137.75;5033979;28;20045;-88
2023/10/31 10:06:24;;;;;;;17.05;10.15;;;;;;;10.69;100.00;100134.34;5016395;28;20030;-87
2023/10/31 10:08:50;;;;;;;14.35;9.50;;;;;;;10.70;100.00;100139.53;5031972;28;20020;-88
2023/10/31 10:11:15;;;;;;;15.93;9.90;;;;;;;10.71;100.00;100149.03;5030646;28;20469;-87
2023/10/31 10:13:42;;;;;;;15.50;10.23;;;;;;;10.71;100.00;100154.22;5034620;28;20053;-87
2023/10/31 10:16:08;;;;;;;17.83;10.50;;;;;;;10.69;100.00;100155.16;5028828;28;20120;-87
2023/10/31 10:18:37;;;;;;;19.33;10.57;;;;;;;10.63;100.00;100156.25;5036791;28;20027;-87
2023/10/31 10:21:04;;;;;;;15.50;9.55;;;;;;;10.58;100.00;100171.19;5013924;28;20055;-87
2023/10/31 10:23:30;;;;;;;16.45;9.43;;;;;;;10.55;100.00;100163.50;5030921;28;20310;-87
2023/10/31 10:25:57;;;;;;;19.05;10.40;;;;;;;10.59;100.00;100175.50;5032730;28;20091;-87
2023/10/31 10:28:24;;;;;;;15.73;10.45;;;;;;;10.65;100.00;100174.41;5033591;28;20392;-88
2023/10/31 10:30:50;;;;;;;16.98;10.15;;;;;;;10.72;100.00;100175.88;5030116;28;20035;-88
2023/10/31 10:33:17;;;;;;;18.15;9.90;;;;;;;10.77;100.00;100185.19;5033437;28;20057;-87
2023/10/31 10:35:43;;;;;;;16.95;10.20;;;;;;;10.80;100.00;100180.78;5031527;28;20476;-88
2023/10/31 10:38:13;;;;;;;17.15;10.32;;;;;;;10.84;100.00;100187.56;5032051;28;20013;-87
2023/10/31 10:40:41;;;;;;;20.40;9.80;;;;;;;10.89;100.00;100188.25;5027857;28;20087;-87
2023/10/31 10:43:12;;;;;;;16.08;9.43;;;;;;;10.91;100.00;100186.47;5028931;28;20084;-87
2023/10/31 10:45:39;;;;;;;15.52;9.68;;;;;;;10.94;100.00;100199.31;5029492;28;20033;-89
2023/10/31 10:48:09;;;;;;;16.05;9.57;;;;;;;10.96;100.00;100194.09;5028185;28;20567;-86
2023/10/31 10:50:41;;;;;;;15.60;9.20;;;;;;;10.98;100.00;100198.31;5029129;28;20022;-86
2023/10/31 10:53:25;;;;;;;16.33;9.82;;;;;;;11.03;100.00;100195.53;5029319;28;20150;-86
2023/10/31 10:56:16;;;;;;;16.35;9.10;;;;;;;11.10;100.00;100207.41;5023999;28;20037;-86
2023/10/31 10:58:55;;;;;;;13.70;8.60;;;;;;;11.12;100.00;100204.75;5028997;28;20029;-86
2023/10/31 11:01:20;;;;;;;14.57;9.05;;;;;;;11.13;100.00;100202.09;5028668;28;20033;-86
2023/10/31 11:03:46;;;;;;;12.43;8.43;;;;;;;11.15;100.00;100200.28;5027548;28;20025;-86
2023/10/31 11:06:13;;;;;;;13.52;8.45;;;;;;;11.18;100.00;100199.31;5011758;28;20025;-86
2023/10/31 11:08:40;;;;;;;13.07;8.52;;;;;;;11.20;100.00;100202.72;5026583;28;20033;-86
2023/10/31 11:11:05;;;;;;;14.70;8.93;;;;;;;11.21;100.00;100207.00;5034466;28;20017;-86